createdAt,value
2023-01-02T00:01:14.341Z,12.12
2023-01-02T00:03:41.636Z,12.12
2023-01-02T00:06:09.717Z,12.12
2023-01-02T00:08:36.421Z,12.11
2023-01-02T00:11:03.549Z,12.11
2023-01-02T00:13:31.470Z,12.11
2023-01-02T00:15:58.652Z,12.07
2023-01-02T00:18:25.395Z,12.07
2023-01-02T00:20:53.438Z,12.07
2023-01-02T00:23:20.591Z,12.06
2023-01-02T00:25:51.693Z,12.06
2023-01-02T00:28:19.545Z,12.03
2023-01-02T00:30:46.711Z,12.01
2023-01-02T00:33:15.506Z,12.00
2023-01-02T00:35:42.706Z,11.98
2023-01-02T00:38:10.780Z,11.97
2023-01-02T00:40:37.701Z,11.94
2023-01-02T00:43:06.242Z,11.92
2023-01-02T00:45:32.978Z,11.90
2023-01-02T00:48:00.652Z,11.88
2023-01-02T00:50:28.875Z,11.85
2023-01-02T00:52:55.657Z,11.81
2023-01-02T00:55:22.673Z,11.74
2023-01-02T00:57:51.400Z,11.69
2023-01-02T01:00:23.943Z,11.64
2023-01-02T01:02:57.365Z,11.60
2023-01-02T01:05:25.308Z,11.57
2023-01-02T01:07:53.822Z,11.55
2023-01-02T01:10:22.583Z,11.54
2023-01-02T01:12:49.753Z,11.50
2023-01-02T01:15:17.888Z,11.43
2023-01-02T01:17:45.864Z,11.40
2023-01-02T01:20:14.082Z,11.39
2023-01-02T01:22:41.684Z,11.39
2023-01-02T01:25:09.557Z,11.39
2023-01-02T01:27:37.580Z,11.40
2023-01-02T01:30:07.276Z,11.41
2023-01-02T01:32:35.458Z,11.43
2023-01-02T01:35:02.720Z,11.46
2023-01-02T01:37:30.659Z,11.46
2023-01-02T01:39:57.396Z,11.46
2023-01-02T01:42:25.561Z,11.47
2023-01-02T01:44:53.807Z,11.48
2023-01-02T01:47:27.222Z,11.50
2023-01-02T01:50:10.491Z,11.50
2023-01-02T01:52:40.760Z,11.51
2023-01-02T01:55:22.376Z,11.52
2023-01-02T01:58:11.719Z,11.52
2023-01-02T02:00:39.773Z,11.53
2023-01-02T02:03:09.324Z,11.35
2023-01-02T02:05:36.831Z,11.53
2023-01-02T02:08:15.807Z,11.52
2023-01-02T02:10:43.008Z,11.51
2023-01-02T02:13:09.691Z,11.51
2023-01-02T02:15:39.500Z,11.50
2023-01-02T02:18:19.429Z,11.51
2023-01-02T02:20:54.049Z,11.52
2023-01-02T02:23:39.610Z,11.53
2023-01-02T02:26:15.968Z,11.54
2023-01-02T02:28:45.565Z,11.56
2023-01-02T02:31:17.190Z,11.56
2023-01-02T02:33:51.865Z,11.56
2023-01-02T02:36:24.641Z,11.58
2023-01-02T02:39:09.801Z,11.59
2023-01-02T02:41:55.009Z,11.60
2023-01-02T02:44:37.571Z,11.60
2023-01-02T02:47:15.131Z,11.60
2023-01-02T02:49:55.029Z,11.59
2023-01-02T02:52:21.781Z,11.60
2023-01-02T02:55:01.540Z,11.60
2023-01-02T02:57:29.888Z,11.62
2023-01-02T02:59:56.792Z,11.64
2023-01-02T03:02:23.743Z,11.63
2023-01-02T03:04:53.663Z,11.64
2023-01-02T03:07:29.860Z,11.67
2023-01-02T03:10:08.663Z,11.67
2023-01-02T03:12:44.005Z,11.71
2023-01-02T03:15:20.541Z,11.73
2023-01-02T03:17:55.104Z,11.74
2023-01-02T03:20:24.544Z,11.76
2023-01-02T03:22:55.058Z,11.78
2023-01-02T03:25:23.335Z,11.80
2023-01-02T03:27:51.669Z,11.81
2023-01-02T03:30:20.342Z,11.81
2023-01-02T03:33:10.153Z,11.80
2023-01-02T03:35:42.571Z,11.78
2023-01-02T03:38:13.669Z,11.79
2023-01-02T03:40:44.051Z,11.81
2023-01-02T03:43:19.061Z,11.81
2023-01-02T03:45:54.979Z,11.82
2023-01-02T03:48:30.758Z,11.83
2023-01-02T03:50:59.353Z,11.83
2023-01-02T03:53:26.926Z,11.84
2023-01-02T03:55:56.813Z,11.85
2023-01-02T03:58:43.798Z,11.86
2023-01-02T04:01:15.995Z,11.86
2023-01-02T04:04:04.430Z,11.85
2023-01-02T04:06:34.819Z,11.85
2023-01-02T04:09:13.497Z,11.84
2023-01-02T04:11:43.009Z,11.84
2023-01-02T04:14:12.190Z,11.81
2023-01-02T04:16:41.486Z,11.79
2023-01-02T04:19:28.562Z,11.78
2023-01-02T04:21:58.756Z,11.75
2023-01-02T04:24:31.538Z,11.73
2023-01-02T04:27:08.218Z,11.72
2023-01-02T04:29:35.024Z,11.70
2023-01-02T04:32:07.958Z,11.71
2023-01-02T04:34:36.975Z,11.70
2023-01-02T04:37:03.946Z,11.69
2023-01-02T04:39:30.844Z,11.66
2023-01-02T04:41:57.640Z,11.64
2023-01-02T04:44:24.411Z,11.61
2023-01-02T04:46:52.048Z,11.59
2023-01-02T04:49:18.768Z,11.61
2023-01-02T04:51:45.411Z,11.62
2023-01-02T04:54:12.389Z,11.62
2023-01-02T04:56:39.328Z,11.63
2023-01-02T04:59:06.141Z,11.63
2023-01-02T05:01:33.090Z,11.65
2023-01-02T05:03:59.852Z,11.37
2023-01-02T05:06:26.517Z,11.65
2023-01-02T05:08:53.390Z,11.66
2023-01-02T05:11:20.824Z,11.67
2023-01-02T05:13:47.594Z,11.68
2023-01-02T05:16:14.700Z,11.69
2023-01-02T05:18:41.460Z,11.70
2023-01-02T05:21:30.809Z,11.72
2023-01-02T05:23:58.631Z,11.73
2023-01-02T05:26:25.588Z,11.76
2023-01-02T05:28:53.357Z,11.79
2023-01-02T05:31:21.559Z,11.80
2023-01-02T05:33:52.305Z,11.81
2023-01-02T05:36:19.166Z,11.80
2023-01-02T05:38:45.861Z,11.79
2023-01-02T05:41:12.619Z,11.79
2023-01-02T05:43:39.396Z,11.78
2023-01-02T05:46:12.429Z,11.77
2023-01-02T05:48:39.830Z,11.75
2023-01-02T05:51:07.644Z,11.72
2023-01-02T05:53:34.414Z,11.71
2023-01-02T05:56:11.733Z,11.71
2023-01-02T05:58:39.928Z,11.71
2023-01-02T06:01:07.892Z,11.73
2023-01-02T06:03:35.007Z,11.75
2023-01-02T06:06:08.804Z,11.77
2023-01-02T06:08:36.444Z,11.79
2023-01-02T06:11:03.894Z,11.80
2023-01-02T06:13:31.503Z,11.80
2023-01-02T06:15:59.208Z,11.81
2023-01-02T06:18:26.577Z,11.80
2023-01-02T06:20:58.007Z,11.83
2023-01-02T06:23:24.756Z,11.85
2023-01-02T06:25:51.605Z,11.84
2023-01-02T06:28:18.365Z,11.86
2023-01-02T06:30:45.218Z,11.86
2023-01-02T06:33:11.996Z,11.87
2023-01-02T06:35:38.907Z,11.88
2023-01-02T06:38:05.824Z,11.87
2023-01-02T06:40:33.120Z,11.86
2023-01-02T06:43:00.321Z,11.86
2023-01-02T06:45:27.323Z,11.87
2023-01-02T06:47:58.073Z,11.86
2023-01-02T06:50:29.882Z,11.86
2023-01-02T06:53:01.344Z,11.85
2023-01-02T06:55:28.064Z,11.84
2023-01-02T06:57:54.829Z,11.85
2023-01-02T07:00:21.578Z,11.85
2023-01-02T07:02:48.477Z,11.86
2023-01-02T07:05:19.737Z,11.87
2023-01-02T07:07:51.053Z,11.89
2023-01-02T07:10:17.874Z,11.90
2023-01-02T07:12:44.598Z,11.93
2023-01-02T07:15:11.401Z,11.96
2023-01-02T07:17:38.219Z,11.98
2023-01-02T07:20:05.107Z,11.99
2023-01-02T07:22:31.876Z,12.00
2023-01-02T07:24:58.593Z,12.01
2023-01-02T07:27:25.385Z,12.02
2023-01-02T07:29:52.174Z,12.02
2023-01-02T07:32:25.411Z,12.02
2023-01-02T07:34:54.295Z,12.04
2023-01-02T07:37:20.965Z,12.05
2023-01-02T07:39:47.802Z,12.05
2023-01-02T07:42:14.615Z,12.05
2023-01-02T07:44:41.846Z,12.07
2023-01-02T07:47:08.509Z,12.08
2023-01-02T07:49:35.304Z,12.11
2023-01-02T07:52:02.008Z,12.12
2023-01-02T07:54:28.722Z,12.14
2023-01-02T07:56:55.434Z,12.17
2023-01-02T07:59:22.317Z,12.19
2023-01-02T08:01:49.156Z,12.21
2023-01-02T08:04:16.075Z,12.24
2023-01-02T08:06:42.763Z,12.28
2023-01-02T08:09:09.580Z,12.31
2023-01-02T08:11:36.537Z,12.34
2023-01-02T08:14:03.457Z,12.35
2023-01-02T08:16:30.157Z,12.36
2023-01-02T08:18:57.095Z,12.37
2023-01-02T08:21:24.508Z,12.38
2023-01-02T08:23:51.658Z,12.43
2023-01-02T08:26:18.698Z,12.46
2023-01-02T08:28:45.505Z,12.50
2023-01-02T08:31:13.669Z,12.53
2023-01-02T08:33:40.582Z,12.58
2023-01-02T08:36:08.302Z,12.60
2023-01-02T08:38:35.115Z,12.63
2023-01-02T08:41:01.993Z,12.66
2023-01-02T08:43:28.833Z,12.69
2023-01-02T08:45:55.713Z,12.76
2023-01-02T08:48:22.573Z,12.82
2023-01-02T08:50:50.103Z,12.84
2023-01-02T08:53:17.255Z,12.87
2023-01-02T08:55:43.963Z,12.92
2023-01-02T08:58:10.797Z,12.95
2023-01-02T09:00:37.500Z,12.97
2023-01-02T09:03:04.467Z,13.00
2023-01-02T09:05:31.332Z,13.05
2023-01-02T09:07:58.502Z,13.11
2023-01-02T09:10:25.389Z,13.21
2023-01-02T09:12:53.109Z,13.24
2023-01-02T09:15:19.923Z,13.24
2023-01-02T09:17:46.739Z,13.23
2023-01-02T09:20:13.502Z,13.30
2023-01-02T09:22:40.904Z,13.35
2023-01-02T09:25:08.018Z,13.36
2023-01-02T09:27:34.756Z,13.34
2023-01-02T09:30:01.458Z,13.35
2023-01-02T09:32:28.260Z,13.31
2023-01-02T09:34:55.390Z,13.31
2023-01-02T09:37:22.235Z,13.36
2023-01-02T09:39:48.956Z,13.41
2023-01-02T09:42:17.249Z,13.44
2023-01-02T09:44:53.020Z,13.46
2023-01-02T09:47:21.965Z,13.49
2023-01-02T09:49:56.008Z,13.51
2023-01-02T09:52:25.863Z,13.54
2023-01-02T09:54:52.744Z,13.54
2023-01-02T09:57:19.617Z,13.57
2023-01-02T09:59:53.969Z,13.57
2023-01-02T10:02:39.368Z,13.59
2023-01-02T10:05:06.990Z,13.54
2023-01-02T10:07:33.724Z,13.50
2023-01-02T10:10:05.858Z,13.47
2023-01-02T10:12:37.311Z,13.29
2023-01-02T10:15:06.715Z,13.40
2023-01-02T10:17:39.189Z,13.37
2023-01-02T10:20:15.681Z,13.38
2023-01-02T10:22:48.872Z,13.37
2023-01-02T10:25:16.117Z,13.36
2023-01-02T10:27:46.691Z,13.34
2023-01-02T10:30:20.622Z,13.28
2023-01-02T10:33:08.321Z,13.24
2023-01-02T10:35:41.704Z,13.22
2023-01-02T10:38:16.210Z,13.21
2023-01-02T10:40:44.893Z,13.20
2023-01-02T10:43:11.958Z,13.17
2023-01-02T10:45:38.694Z,13.13
2023-01-02T10:48:05.571Z,13.15
2023-01-02T10:50:38.412Z,13.13
2023-01-02T10:53:05.441Z,13.08
2023-01-02T10:55:33.449Z,13.06
2023-01-02T10:58:05.161Z,13.02
2023-01-02T11:00:34.563Z,13.02
2023-01-02T11:03:13.496Z,13.05
2023-01-02T11:05:53.848Z,13.07
2023-01-02T11:08:22.220Z,13.07
2023-01-02T11:10:49.452Z,13.03
2023-01-02T11:13:17.557Z,12.99
2023-01-02T11:15:47.752Z,12.99
2023-01-02T11:18:20.187Z,13.02
2023-01-02T11:20:49.870Z,13.03
2023-01-02T11:23:17.075Z,13.07
2023-01-02T11:25:44.212Z,13.12
2023-01-02T11:28:20.869Z,13.18
2023-01-02T11:30:49.940Z,13.20
2023-01-02T11:33:32.884Z,13.19
2023-01-02T11:36:05.619Z,13.18
2023-01-02T11:38:49.745Z,13.18
2023-01-02T11:41:48.280Z,13.13
2023-01-02T11:44:27.107Z,13.17
2023-01-02T11:46:54.668Z,13.21
2023-01-02T11:49:23.683Z,13.22
2023-01-02T11:51:54.993Z,13.23
2023-01-02T11:54:44.660Z,13.23
2023-01-02T11:57:29.631Z,13.27
2023-01-02T11:59:59.462Z,13.28
2023-01-02T12:02:46.101Z,13.27
2023-01-02T12:05:14.350Z,13.21
2023-01-02T12:07:51.227Z,13.22
2023-01-02T12:10:27.461Z,13.24
2023-01-02T12:12:54.219Z,13.29
2023-01-02T12:15:33.367Z,13.30
2023-01-02T12:18:24.980Z,13.28
2023-01-02T12:20:58.474Z,13.30
2023-01-02T12:23:29.039Z,13.34
2023-01-02T12:26:09.594Z,13.36
2023-01-02T12:28:45.691Z,13.35
2023-01-02T12:31:31.232Z,13.34
2023-01-02T12:33:58.370Z,13.33
2023-01-02T12:36:25.063Z,13.32
2023-01-02T12:38:57.721Z,13.16
2023-01-02T12:41:32.433Z,13.33
2023-01-02T12:44:07.937Z,13.31
2023-01-02T12:46:37.775Z,13.31
2023-01-02T12:49:10.467Z,13.30
2023-01-02T12:51:40.283Z,13.31
2023-01-02T12:54:25.432Z,13.28
2023-01-02T12:56:58.046Z,13.23
2023-01-02T12:59:24.752Z,13.23
2023-01-02T13:02:23.920Z,13.22
2023-01-02T13:04:56.373Z,13.18
2023-01-02T13:07:28.866Z,13.14
2023-01-02T13:09:57.523Z,13.13
2023-01-02T13:12:26.438Z,13.12
2023-01-02T13:15:04.629Z,13.11
2023-01-02T13:17:31.518Z,13.07
2023-01-02T13:20:01.385Z,13.05
2023-01-02T13:22:35.006Z,13.04
2023-01-02T13:25:02.516Z,13.04
2023-01-02T13:27:29.462Z,13.07
2023-01-02T13:29:56.340Z,13.09
2023-01-02T13:32:27.278Z,13.10
2023-01-02T13:34:55.281Z,13.13
2023-01-02T13:37:24.580Z,13.12
2023-01-02T13:39:56.684Z,13.11
2023-01-02T13:42:45.083Z,13.08
2023-01-02T13:45:21.321Z,13.08
2023-01-02T13:47:56.712Z,13.09
2023-01-02T13:50:24.091Z,13.10
2023-01-02T13:52:56.841Z,13.07
2023-01-02T13:55:31.660Z,13.03
2023-01-02T13:58:20.478Z,13.05
2023-01-02T14:00:54.708Z,13.01
2023-01-02T14:03:23.136Z,13.00
2023-01-02T14:05:59.163Z,12.99
2023-01-02T14:08:26.042Z,12.85
2023-01-02T14:10:55.238Z,12.96
2023-01-02T14:13:24.997Z,12.97
2023-01-02T14:16:00.681Z,12.96
2023-01-02T14:18:30.944Z,12.92
2023-01-02T14:20:57.908Z,12.90
2023-01-02T14:23:33.958Z,12.88
2023-01-02T14:26:00.891Z,12.89
2023-01-02T14:28:31.507Z,12.89
2023-01-02T14:30:58.580Z,12.87
2023-01-02T14:33:30.119Z,12.83
2023-01-02T14:35:58.782Z,12.82
2023-01-02T14:38:27.393Z,12.79
2023-01-02T14:40:54.345Z,12.77
2023-01-02T14:43:31.816Z,12.77
2023-01-02T14:46:07.280Z,12.78
2023-01-02T14:48:47.798Z,12.78
2023-01-02T14:51:23.171Z,12.79
2023-01-02T14:53:58.315Z,12.77
2023-01-02T14:56:33.278Z,12.73
2023-01-02T14:59:01.430Z,12.72
2023-01-02T15:01:42.783Z,12.72
2023-01-02T15:04:20.486Z,12.71
2023-01-02T15:06:49.899Z,12.69
2023-01-02T15:09:34.086Z,12.69
2023-01-02T15:12:20.575Z,12.67
2023-01-02T15:14:47.787Z,12.63
2023-01-02T15:17:18.109Z,12.60
2023-01-02T15:19:45.140Z,12.59
2023-01-02T15:22:17.348Z,12.57
2023-01-02T15:24:48.495Z,12.55
2023-01-02T15:27:35.500Z,12.54
2023-01-02T15:30:05.781Z,12.52
2023-01-02T15:32:33.929Z,12.51
2023-01-02T15:35:23.699Z,12.48
2023-01-02T15:37:50.852Z,12.47
2023-01-02T15:40:20.525Z,12.45
2023-01-02T15:43:06.735Z,12.43
2023-01-02T15:45:33.776Z,12.43
2023-01-02T15:48:00.603Z,12.41
2023-01-02T15:50:29.072Z,12.37
2023-01-02T15:53:00.831Z,12.36
2023-01-02T15:55:30.901Z,12.33
2023-01-02T15:57:57.775Z,12.28
2023-01-02T16:00:37.787Z,12.24
2023-01-02T16:03:04.933Z,12.19
2023-01-02T16:05:44.191Z,12.17
2023-01-02T16:08:17.190Z,12.15
2023-01-02T16:10:50.636Z,12.12
2023-01-02T16:13:38.128Z,12.08
2023-01-02T16:16:16.051Z,12.06
2023-01-02T16:18:46.291Z,12.04
2023-01-02T16:21:14.243Z,12.01
2023-01-02T16:23:49.852Z,12.00
2023-01-02T16:26:17.684Z,12.00
2023-01-02T16:28:44.416Z,11.99
2023-01-02T16:31:11.380Z,11.97
2023-01-02T16:33:38.258Z,11.96
2023-01-02T16:36:18.339Z,11.94
2023-01-02T16:38:53.791Z,11.94
2023-01-02T16:41:33.912Z,11.94
2023-01-02T16:44:01.329Z,11.95
2023-01-02T16:46:29.058Z,11.94
2023-01-02T16:49:02.917Z,11.93
2023-01-02T16:51:32.153Z,11.93
2023-01-02T16:53:58.861Z,11.93
2023-01-02T16:56:25.642Z,11.93
2023-01-02T16:58:53.471Z,11.94
2023-01-02T17:01:20.908Z,11.95
2023-01-02T17:03:47.767Z,11.96
2023-01-02T17:06:16.044Z,11.98
2023-01-02T17:08:42.820Z,11.99
2023-01-02T17:11:12.759Z,12.00
2023-01-02T17:13:39.814Z,12.02
2023-01-02T17:16:06.976Z,12.03
2023-01-02T17:18:34.137Z,12.04
2023-01-02T17:21:00.967Z,12.08
2023-01-02T17:23:27.782Z,12.10
2023-01-02T17:25:54.476Z,12.11
2023-01-02T17:28:21.292Z,12.12
2023-01-02T17:30:49.332Z,12.12
2023-01-02T17:33:17.139Z,12.14
2023-01-02T17:35:45.485Z,12.15
2023-01-02T17:38:12.300Z,12.16
2023-01-02T17:40:39.047Z,12.17
2023-01-02T17:43:06.012Z,12.20
2023-01-02T17:45:32.888Z,12.21
2023-01-02T17:48:05.496Z,12.22
2023-01-02T17:50:50.123Z,12.22
2023-01-02T17:53:16.902Z,12.23
2023-01-02T17:55:50.176Z,12.24
2023-01-02T17:58:16.999Z,12.25
2023-01-02T18:00:44.105Z,12.26
2023-01-02T18:03:11.065Z,12.25
2023-01-02T18:05:37.880Z,12.26
2023-01-02T18:08:04.943Z,12.27
2023-01-02T18:10:33.541Z,12.26
2023-01-02T18:13:00.561Z,12.26
2023-01-02T18:15:28.338Z,12.23
2023-01-02T18:17:55.591Z,12.22
2023-01-02T18:20:23.341Z,12.21
2023-01-02T18:22:51.136Z,12.21
2023-01-02T18:25:25.698Z,12.20
2023-01-02T18:27:55.965Z,12.17
2023-01-02T18:30:24.223Z,12.15
2023-01-02T18:32:57.426Z,12.14
2023-01-02T18:38:28.344Z,12.11
2023-01-02T18:40:55.527Z,12.08
2023-01-02T18:43:31.961Z,12.04
2023-01-02T18:45:59.779Z,12.02
2023-01-02T18:48:26.759Z,11.99
2023-01-02T18:50:58.533Z,11.96
2023-01-02T18:53:26.763Z,11.94
2023-01-02T18:56:01.330Z,11.92
2023-01-02T18:59:04.373Z,11.89
2023-01-02T19:01:34.367Z,11.86
2023-01-02T19:04:18.928Z,11.83
2023-01-02T19:06:50.623Z,11.80
2023-01-02T19:09:43.722Z,11.77
2023-01-02T19:12:32.206Z,11.74
2023-01-02T19:15:01.410Z,11.71
2023-01-02T19:17:31.923Z,11.69
2023-01-02T19:19:59.817Z,11.67
2023-01-02T19:22:34.786Z,11.64
2023-01-02T19:25:19.938Z,11.65
2023-01-02T19:27:46.758Z,11.61
2023-01-02T19:30:22.894Z,11.60
2023-01-02T19:32:49.680Z,11.57
2023-01-02T19:35:25.658Z,11.54
2023-01-02T19:37:52.618Z,11.50
2023-01-02T19:40:20.991Z,11.48
2023-01-02T19:42:51.518Z,11.47
2023-01-02T19:45:19.738Z,11.46
2023-01-02T19:47:46.946Z,11.43
2023-01-02T19:50:15.808Z,11.42
2023-01-02T19:52:42.502Z,11.41
2023-01-02T19:55:10.028Z,11.39
2023-01-02T19:57:37.035Z,11.38
2023-01-02T20:00:07.152Z,11.39
2023-01-02T20:02:40.653Z,11.38
2023-01-02T20:05:08.331Z,11.37
2023-01-02T20:07:35.139Z,11.35
2023-01-02T20:10:02.164Z,11.34
2023-01-02T20:12:30.164Z,11.31
2023-01-02T20:14:58.121Z,11.31
2023-01-02T20:17:24.931Z,11.31
2023-01-02T20:19:51.688Z,11.30
2023-01-02T20:22:18.751Z,11.31
2023-01-02T20:24:45.753Z,11.30
2023-01-02T20:27:14.166Z,11.30
2023-01-02T20:29:41.276Z,11.30
2023-01-02T20:32:08.350Z,11.33
2023-01-02T20:34:35.173Z,11.36
2023-01-02T20:37:01.823Z,11.36
2023-01-02T20:39:28.756Z,11.37
2023-01-02T20:41:55.449Z,11.39
2023-01-02T20:44:22.589Z,11.43
2023-01-02T20:46:49.578Z,11.47
2023-01-02T20:49:16.753Z,11.31
2023-01-02T20:51:43.454Z,11.52
2023-01-02T20:54:10.923Z,11.54
2023-01-02T20:56:37.607Z,11.57
2023-01-02T20:59:04.463Z,11.59
2023-01-02T21:01:31.410Z,11.62
2023-01-02T21:03:58.375Z,11.64
2023-01-02T21:06:25.124Z,11.66
2023-01-02T21:08:52.083Z,11.70
2023-01-02T21:11:18.929Z,11.72
2023-01-02T21:13:45.699Z,11.74
2023-01-02T21:16:12.558Z,11.78
2023-01-02T21:18:40.229Z,11.80
2023-01-02T21:21:08.581Z,11.83
2023-01-02T21:23:36.863Z,11.85
2023-01-02T21:26:04.543Z,11.88
2023-01-02T21:28:31.349Z,11.89
2023-01-02T21:30:58.203Z,11.92
2023-01-02T21:33:25.874Z,11.91
2023-01-02T21:35:53.278Z,11.92
2023-01-02T21:38:20.996Z,11.94
2023-01-02T21:40:47.711Z,11.94
2023-01-02T21:43:14.696Z,11.95
2023-01-02T21:45:41.559Z,11.95
2023-01-02T21:48:08.358Z,11.95
2023-01-02T21:50:35.167Z,11.97
2023-01-02T21:53:02.176Z,11.98
2023-01-02T21:55:29.125Z,11.97
2023-01-02T21:58:12.769Z,11.97
2023-01-02T22:00:40.532Z,11.97
2023-01-02T22:03:07.385Z,11.99
2023-01-02T22:05:34.205Z,11.99
2023-01-02T22:08:01.055Z,11.98
2023-01-02T22:10:27.879Z,11.99
2023-01-02T22:12:54.948Z,11.98
2023-01-02T22:15:21.816Z,11.98
2023-01-02T22:17:48.565Z,11.98
2023-01-02T22:20:15.699Z,11.99
2023-01-02T22:22:42.721Z,11.98
2023-01-02T22:25:09.946Z,11.99
2023-01-02T22:27:36.924Z,11.97
2023-01-02T22:30:27.173Z,11.98
2023-01-02T22:32:52.823Z,11.96
2023-01-02T22:35:19.660Z,11.96
2023-01-02T22:37:46.451Z,11.98
2023-01-02T22:40:13.407Z,11.97
2023-01-02T22:43:01.130Z,11.97
2023-01-02T22:45:30.573Z,11.98
2023-01-02T22:47:58.467Z,11.96
2023-01-02T22:50:26.994Z,11.95
2023-01-02T22:52:54.232Z,11.95
2023-01-02T22:55:22.301Z,11.96
2023-01-02T22:57:51.485Z,11.95
2023-01-02T23:00:21.809Z,11.94
2023-01-02T23:02:48.892Z,11.93
2023-01-02T23:05:17.435Z,11.92
2023-01-02T23:07:44.517Z,11.90
2023-01-02T23:10:11.730Z,11.88
2023-01-02T23:12:38.466Z,11.87
2023-01-02T23:15:06.205Z,11.86
2023-01-02T23:17:51.646Z,11.87
2023-01-02T23:20:18.664Z,11.87
2023-01-02T23:22:48.071Z,11.89
2023-01-02T23:25:15.684Z,11.90
2023-01-02T23:27:42.563Z,11.90
2023-01-02T23:30:09.667Z,11.89
2023-01-02T23:32:36.436Z,11.88
2023-01-02T23:35:03.498Z,11.89
2023-01-02T23:37:30.242Z,11.88
2023-01-02T23:39:57.376Z,11.87
2023-01-02T23:42:24.084Z,11.89
2023-01-02T23:44:50.804Z,11.89
2023-01-02T23:47:19.377Z,11.89
2023-01-02T23:49:46.438Z,11.90
2023-01-02T23:52:13.258Z,11.89
2023-01-02T23:54:40.132Z,11.91
2023-01-02T23:57:06.799Z,11.89
2023-01-02T23:59:33.591Z,11.89
